sensor_id;sensor_type;location;lat;lon;timestamp;temperature;humidity
33837;DHT22;20140;49.356;8.812;2023-01-05T00:01:27;10.80;99.90
33837;DHT22;20140;49.356;8.812;2023-01-05T00:03:53;10.80;99.90
33837;DHT22;20140;49.356;8.812;2023-01-05T00:06:18;10.70;99.90
33837;DHT22;20140;49.356;8.812;2023-01-05T00:08:44;10.70;99.90
33837;DHT22;20140;49.356;8.812;2023-01-05T00:11:21;10.60;99.90
33837;DHT22;20140;49.356;8.812;2023-01-05T00:14:11;10.60;99.90
33837;DHT22;20140;49.356;8.812;2023-01-05T00:16:56;10.70;99.90
33837;DHT22;20140;49.356;8.812;2023-01-05T00:19:39;10.60;99.90
33837;DHT22;20140;49.356;8.812;2023-01-05T00:22:26;10.60;99.90
33837;DHT22;20140;49.356;8.812;2023-01-05T00:24:55;10.60;99.90
33837;DHT22;20140;49.356;8.812;2023-01-05T00:27:20;10.70;99.90
33837;DHT22;20140;49.356;8.812;2023-01-05T00:29:46;10.60;99.90
33837;DHT22;20140;49.356;8.812;2023-01-05T00:32:11;10.60;99.90
33837;DHT22;20140;49.356;8.812;2023-01-05T00:34:37;10.60;99.90
33837;DHT22;20140;49.356;8.812;2023-01-05T00:37:02;10.60;99.90
33837;DHT22;20140;49.356;8.812;2023-01-05T00:39:28;10.70;99.90
33837;DHT22;20140;49.356;8.812;2023-01-05T00:41:53;10.70;99.90
33837;DHT22;20140;49.356;8.812;2023-01-05T00:44:19;10.70;99.90
33837;DHT22;20140;49.356;8.812;2023-01-05T00:46:44;10.80;99.90
33837;DHT22;20140;49.356;8.812;2023-01-05T00:49:09;10.80;99.90
33837;DHT22;20140;49.356;8.812;2023-01-05T00:51:35;10.70;99.90
33837;DHT22;20140;49.356;8.812;2023-01-05T00:54:00;10.80;99.90
33837;DHT22;20140;49.356;8.812;2023-01-05T00:56:26;10.80;99.90
33837;DHT22;20140;49.356;8.812;2023-01-05T00:58:52;10.80;99.90
33837;DHT22;20140;49.356;8.812;2023-01-05T01:01:19;10.80;99.90
33837;DHT22;20140;49.356;8.812;2023-01-05T01:03:45;10.90;99.90
33837;DHT22;20140;49.356;8.812;2023-01-05T01:06:10;10.80;99.90
33837;DHT22;20140;49.356;8.812;2023-01-05T01:08:37;10.80;99.90
33837;DHT22;20140;49.356;8.812;2023-01-05T01:11:04;10.80;99.90
33837;DHT22;20140;49.356;8.812;2023-01-05T01:13:30;10.80;99.90
33837;DHT22;20140;49.356;8.812;2023-01-05T01:15:55;10.90;99.90
33837;DHT22;20140;49.356;8.812;2023-01-05T01:18:21;10.90;99.90
33837;DHT22;20140;49.356;8.812;2023-01-05T01:20:47;10.80;99.90
33837;DHT22;20140;49.356;8.812;2023-01-05T01:23:13;10.90;99.90
33837;DHT22;20140;49.356;8.812;2023-01-05T01:25:38;10.80;99.90
33837;DHT22;20140;49.356;8.812;2023-01-05T01:28:04;10.80;99.90
33837;DHT22;20140;49.356;8.812;2023-01-05T01:30:30;10.80;99.90
33837;DHT22;20140;49.356;8.812;2023-01-05T01:32:56;10.80;99.90
33837;DHT22;20140;49.356;8.812;2023-01-05T01:35:21;10.80;99.90
33837;DHT22;20140;49.356;8.812;2023-01-05T01:37:47;10.80;99.90
33837;DHT22;20140;49.356;8.812;2023-01-05T01:40:12;10.80;99.90
33837;DHT22;20140;49.356;8.812;2023-01-05T01:42:38;10.80;99.90
33837;DHT22;20140;49.356;8.812;2023-01-05T01:45:16;10.80;99.90
33837;DHT22;20140;49.356;8.812;2023-01-05T01:47:56;10.80;99.90
33837;DHT22;20140;49.356;8.812;2023-01-05T01:50:28;10.80;99.90
33837;DHT22;20140;49.356;8.812;2023-01-05T01:52:59;10.80;99.90
33837;DHT22;20140;49.356;8.812;2023-01-05T01:55:27;10.80;99.90
33837;DHT22;20140;49.356;8.812;2023-01-05T01:57:54;10.80;99.90
33837;DHT22;20140;49.356;8.812;2023-01-05T02:00:20;10.80;99.90
33837;DHT22;20140;49.356;8.812;2023-01-05T02:02:53;10.80;99.90
33837;DHT22;20140;49.356;8.812;2023-01-05T02:05:21;10.80;99.90
33837;DHT22;20140;49.356;8.812;2023-01-05T02:07:48;10.90;99.90
33837;DHT22;20140;49.356;8.812;2023-01-05T02:10:16;10.80;99.90
33837;DHT22;20140;49.356;8.812;2023-01-05T02:12:57;10.90;99.90
33837;DHT22;20140;49.356;8.812;2023-01-05T02:18:19;10.90;99.90
33837;DHT22;20140;49.356;8.812;2023-01-05T02:32:15;10.70;99.90
33837;DHT22;20140;49.356;8.812;2023-01-05T02:35:09;10.60;99.90
33837;DHT22;20140;49.356;8.812;2023-01-05T02:37:44;10.60;99.90
33837;DHT22;20140;49.356;8.812;2023-01-05T02:40:22;10.70;99.90
33837;DHT22;20140;49.356;8.812;2023-01-05T02:42:50;10.70;99.90
33837;DHT22;20140;49.356;8.812;2023-01-05T02:45:17;10.60;99.90
33837;DHT22;20140;49.356;8.812;2023-01-05T02:47:46;10.60;99.90
33837;DHT22;20140;49.356;8.812;2023-01-05T02:50:37;10.60;99.90
33837;DHT22;20140;49.356;8.812;2023-01-05T02:53:19;10.60;99.90
33837;DHT22;20140;49.356;8.812;2023-01-05T02:55:56;10.60;99.90
33837;DHT22;20140;49.356;8.812;2023-01-05T02:58:32;10.60;99.90
33837;DHT22;20140;49.356;8.812;2023-01-05T03:01:04;10.60;99.90
33837;DHT22;20140;49.356;8.812;2023-01-05T03:03:32;10.60;99.90
33837;DHT22;20140;49.356;8.812;2023-01-05T03:06:12;10.70;99.90
33837;DHT22;20140;49.356;8.812;2023-01-05T03:08:48;10.70;99.90
33837;DHT22;20140;49.356;8.812;2023-01-05T03:11:15;10.70;99.90
33837;DHT22;20140;49.356;8.812;2023-01-05T03:14:09;10.70;99.90
33837;DHT22;20140;49.356;8.812;2023-01-05T03:16:37;10.70;99.90
33837;DHT22;20140;49.356;8.812;2023-01-05T03:19:08;10.80;99.90
33837;DHT22;20140;49.356;8.812;2023-01-05T03:21:54;10.80;99.90
33837;DHT22;20140;49.356;8.812;2023-01-05T03:24:39;10.90;99.90
33837;DHT22;20140;49.356;8.812;2023-01-05T03:27:25;10.90;99.90
33837;DHT22;20140;49.356;8.812;2023-01-05T03:30:11;10.90;99.90
33837;DHT22;20140;49.356;8.812;2023-01-05T03:33:03;11.00;99.90
33837;DHT22;20140;49.356;8.812;2023-01-05T03:35:50;11.00;99.90
33837;DHT22;20140;49.356;8.812;2023-01-05T03:38:27;11.00;99.90
33837;DHT22;20140;49.356;8.812;2023-01-05T03:40:57;11.10;99.90
33837;DHT22;20140;49.356;8.812;2023-01-05T03:43:24;11.10;99.90
33837;DHT22;20140;49.356;8.812;2023-01-05T03:45:52;11.10;99.90
33837;DHT22;20140;49.356;8.812;2023-01-05T03:48:19;11.10;99.90
33837;DHT22;20140;49.356;8.812;2023-01-05T03:50:45;11.10;99.90
33837;DHT22;20140;49.356;8.812;2023-01-05T03:53:11;11.00;99.90
33837;DHT22;20140;49.356;8.812;2023-01-05T03:55:37;11.00;99.90
33837;DHT22;20140;49.356;8.812;2023-01-05T03:58:02;11.00;99.90
33837;DHT22;20140;49.356;8.812;2023-01-05T04:00:28;11.00;99.90
33837;DHT22;20140;49.356;8.812;2023-01-05T04:02:53;11.00;99.90
33837;DHT22;20140;49.356;8.812;2023-01-05T04:05:19;10.90;99.90
33837;DHT22;20140;49.356;8.812;2023-01-05T04:07:45;10.90;99.90
33837;DHT22;20140;49.356;8.812;2023-01-05T04:10:10;10.90;99.90
33837;DHT22;20140;49.356;8.812;2023-01-05T04:12:36;10.80;99.90
33837;DHT22;20140;49.356;8.812;2023-01-05T04:15:03;10.80;99.90
33837;DHT22;20140;49.356;8.812;2023-01-05T04:17:28;10.80;99.90
33837;DHT22;20140;49.356;8.812;2023-01-05T04:19:54;10.80;99.90
33837;DHT22;20140;49.356;8.812;2023-01-05T04:22:19;10.90;99.90
33837;DHT22;20140;49.356;8.812;2023-01-05T04:24:45;10.90;99.90
33837;DHT22;20140;49.356;8.812;2023-01-05T04:27:10;10.90;99.90
33837;DHT22;20140;49.356;8.812;2023-01-05T04:29:36;10.90;99.90
33837;DHT22;20140;49.356;8.812;2023-01-05T04:32:01;11.00;99.90
33837;DHT22;20140;49.356;8.812;2023-01-05T04:34:27;11.00;99.90
33837;DHT22;20140;49.356;8.812;2023-01-05T04:36:53;11.00;99.90
33837;DHT22;20140;49.356;8.812;2023-01-05T04:39:18;11.00;99.90
33837;DHT22;20140;49.356;8.812;2023-01-05T04:41:44;11.00;99.90
33837;DHT22;20140;49.356;8.812;2023-01-05T04:44:10;11.00;99.90
33837;DHT22;20140;49.356;8.812;2023-01-05T04:46:35;11.00;99.90
33837;DHT22;20140;49.356;8.812;2023-01-05T04:49:01;11.00;99.90
33837;DHT22;20140;49.356;8.812;2023-01-05T04:51:26;11.10;99.90
33837;DHT22;20140;49.356;8.812;2023-01-05T04:53:52;11.10;99.90
33837;DHT22;20140;49.356;8.812;2023-01-05T04:56:17;11.10;99.90
33837;DHT22;20140;49.356;8.812;2023-01-05T04:58:43;11.10;99.90
33837;DHT22;20140;49.356;8.812;2023-01-05T05:01:09;11.10;99.90
33837;DHT22;20140;49.356;8.812;2023-01-05T05:03:34;11.20;99.90
33837;DHT22;20140;49.356;8.812;2023-01-05T05:06:00;11.20;99.90
33837;DHT22;20140;49.356;8.812;2023-01-05T05:08:26;11.40;99.90
33837;DHT22;20140;49.356;8.812;2023-01-05T05:10:51;11.40;99.90
33837;DHT22;20140;49.356;8.812;2023-01-05T05:13:17;11.30;99.90
33837;DHT22;20140;49.356;8.812;2023-01-05T05:15:45;11.20;99.90
33837;DHT22;20140;49.356;8.812;2023-01-05T05:18:11;11.10;99.90
33837;DHT22;20140;49.356;8.812;2023-01-05T05:20:37;11.20;99.90
33837;DHT22;20140;49.356;8.812;2023-01-05T05:23:04;11.10;99.90
33837;DHT22;20140;49.356;8.812;2023-01-05T05:25:30;11.10;99.90
33837;DHT22;20140;49.356;8.812;2023-01-05T05:27:55;11.10;99.90
33837;DHT22;20140;49.356;8.812;2023-01-05T05:30:21;11.00;99.90
33837;DHT22;20140;49.356;8.812;2023-01-05T05:32:46;11.10;99.90
33837;DHT22;20140;49.356;8.812;2023-01-05T05:35:12;11.10;99.90
33837;DHT22;20140;49.356;8.812;2023-01-05T05:37:37;11.00;99.90
33837;DHT22;20140;49.356;8.812;2023-01-05T05:40:03;10.90;99.90
33837;DHT22;20140;49.356;8.812;2023-01-05T05:42:29;10.90;99.90
33837;DHT22;20140;49.356;8.812;2023-01-05T05:44:54;11.00;99.90
33837;DHT22;20140;49.356;8.812;2023-01-05T05:47:20;11.10;99.90
33837;DHT22;20140;49.356;8.812;2023-01-05T05:49:45;11.10;99.90
33837;DHT22;20140;49.356;8.812;2023-01-05T05:52:11;11.10;99.90
33837;DHT22;20140;49.356;8.812;2023-01-05T05:54:36;11.00;99.90
33837;DHT22;20140;49.356;8.812;2023-01-05T05:57:02;11.10;99.90
33837;DHT22;20140;49.356;8.812;2023-01-05T05:59:27;11.10;99.90
33837;DHT22;20140;49.356;8.812;2023-01-05T06:01:53;11.10;99.90
33837;DHT22;20140;49.356;8.812;2023-01-05T06:04:18;11.00;99.90
33837;DHT22;20140;49.356;8.812;2023-01-05T06:06:44;11.10;99.90
33837;DHT22;20140;49.356;8.812;2023-01-05T06:09:09;11.10;99.90
33837;DHT22;20140;49.356;8.812;2023-01-05T06:11:35;11.10;99.90
33837;DHT22;20140;49.356;8.812;2023-01-05T06:14:00;11.10;99.90
33837;DHT22;20140;49.356;8.812;2023-01-05T06:16:27;11.10;99.90
33837;DHT22;20140;49.356;8.812;2023-01-05T06:18:53;11.20;99.90
33837;DHT22;20140;49.356;8.812;2023-01-05T06:21:18;11.10;99.90
33837;DHT22;20140;49.356;8.812;2023-01-05T06:23:45;11.00;99.90
33837;DHT22;20140;49.356;8.812;2023-01-05T06:26:11;11.00;99.90
33837;DHT22;20140;49.356;8.812;2023-01-05T06:28:36;11.00;99.90
33837;DHT22;20140;49.356;8.812;2023-01-05T06:31:02;11.10;99.90
33837;DHT22;20140;49.356;8.812;2023-01-05T06:33:28;11.10;99.90
33837;DHT22;20140;49.356;8.812;2023-01-05T06:35:53;11.00;99.90
33837;DHT22;20140;49.356;8.812;2023-01-05T06:38:19;10.80;99.90
33837;DHT22;20140;49.356;8.812;2023-01-05T06:40:46;10.80;99.90
33837;DHT22;20140;49.356;8.812;2023-01-05T06:43:12;10.80;99.90
33837;DHT22;20140;49.356;8.812;2023-01-05T06:45:37;10.80;99.90
33837;DHT22;20140;49.356;8.812;2023-01-05T06:48:03;10.80;99.90
33837;DHT22;20140;49.356;8.812;2023-01-05T06:50:29;10.80;99.90
33837;DHT22;20140;49.356;8.812;2023-01-05T06:52:56;10.80;99.90
33837;DHT22;20140;49.356;8.812;2023-01-05T06:55:22;10.70;99.90
33837;DHT22;20140;49.356;8.812;2023-01-05T06:57:47;10.70;99.90
33837;DHT22;20140;49.356;8.812;2023-01-05T07:00:14;10.80;99.90
33837;DHT22;20140;49.356;8.812;2023-01-05T07:02:40;10.70;99.90
33837;DHT22;20140;49.356;8.812;2023-01-05T07:05:06;10.60;99.90
33837;DHT22;20140;49.356;8.812;2023-01-05T07:07:32;10.70;99.90
33837;DHT22;20140;49.356;8.812;2023-01-05T07:09:58;10.70;99.90
33837;DHT22;20140;49.356;8.812;2023-01-05T07:12:23;10.90;99.90
33837;DHT22;20140;49.356;8.812;2023-01-05T07:14:49;11.00;99.90
33837;DHT22;20140;49.356;8.812;2023-01-05T07:17:14;11.00;99.90
33837;DHT22;20140;49.356;8.812;2023-01-05T07:19:40;10.90;99.90
33837;DHT22;20140;49.356;8.812;2023-01-05T07:22:06;10.90;99.90
33837;DHT22;20140;49.356;8.812;2023-01-05T07:24:32;10.90;99.90
33837;DHT22;20140;49.356;8.812;2023-01-05T07:26:58;10.90;99.90
33837;DHT22;20140;49.356;8.812;2023-01-05T07:29:24;10.80;99.90
33837;DHT22;20140;49.356;8.812;2023-01-05T07:31:49;10.90;99.90
33837;DHT22;20140;49.356;8.812;2023-01-05T07:34:17;10.80;99.90
33837;DHT22;20140;49.356;8.812;2023-01-05T07:36:43;10.90;99.90
33837;DHT22;20140;49.356;8.812;2023-01-05T07:39:08;11.00;99.90
33837;DHT22;20140;49.356;8.812;2023-01-05T07:41:34;11.10;99.90
33837;DHT22;20140;49.356;8.812;2023-01-05T07:43:59;11.00;99.90
33837;DHT22;20140;49.356;8.812;2023-01-05T07:46:25;11.00;99.90
33837;DHT22;20140;49.356;8.812;2023-01-05T07:48:50;11.10;99.90
33837;DHT22;20140;49.356;8.812;2023-01-05T07:51:16;11.00;99.90
33837;DHT22;20140;49.356;8.812;2023-01-05T07:53:42;11.00;99.90
33837;DHT22;20140;49.356;8.812;2023-01-05T07:56:08;11.00;99.90
33837;DHT22;20140;49.356;8.812;2023-01-05T07:58:34;11.00;99.90
33837;DHT22;20140;49.356;8.812;2023-01-05T08:01:12;11.00;99.90
33837;DHT22;20140;49.356;8.812;2023-01-05T08:03:38;11.00;99.90
33837;DHT22;20140;49.356;8.812;2023-01-05T08:06:09;11.00;99.90
33837;DHT22;20140;49.356;8.812;2023-01-05T08:08:35;11.10;99.90
33837;DHT22;20140;49.356;8.812;2023-01-05T08:11:03;11.10;99.90
33837;DHT22;20140;49.356;8.812;2023-01-05T08:13:29;11.10;99.90
33837;DHT22;20140;49.356;8.812;2023-01-05T08:16:13;11.10;99.90
33837;DHT22;20140;49.356;8.812;2023-01-05T08:18:39;11.20;99.90
33837;DHT22;20140;49.356;8.812;2023-01-05T08:21:04;11.20;99.90
33837;DHT22;20140;49.356;8.812;2023-01-05T08:23:32;11.20;99.90
33837;DHT22;20140;49.356;8.812;2023-01-05T08:26:06;11.20;99.90
33837;DHT22;20140;49.356;8.812;2023-01-05T08:28:34;11.40;99.90
33837;DHT22;20140;49.356;8.812;2023-01-05T08:31:01;11.40;99.90
33837;DHT22;20140;49.356;8.812;2023-01-05T08:33:27;11.40;99.90
33837;DHT22;20140;49.356;8.812;2023-01-05T08:35:52;11.40;99.90
33837;DHT22;20140;49.356;8.812;2023-01-05T08:38:20;11.40;99.90
33837;DHT22;20140;49.356;8.812;2023-01-05T08:40:46;11.40;99.90
33837;DHT22;20140;49.356;8.812;2023-01-05T08:43:12;11.50;99.90
33837;DHT22;20140;49.356;8.812;2023-01-05T08:45:37;11.50;99.90
33837;DHT22;20140;49.356;8.812;2023-01-05T08:48:03;11.50;99.90
33837;DHT22;20140;49.356;8.812;2023-01-05T08:50:28;11.50;99.90
33837;DHT22;20140;49.356;8.812;2023-01-05T08:52:56;11.50;99.90
33837;DHT22;20140;49.356;8.812;2023-01-05T08:55:21;11.40;99.90
33837;DHT22;20140;49.356;8.812;2023-01-05T08:57:47;11.60;99.90
33837;DHT22;20140;49.356;8.812;2023-01-05T09:00:13;11.70;99.90
33837;DHT22;20140;49.356;8.812;2023-01-05T09:02:42;11.50;99.90
33837;DHT22;20140;49.356;8.812;2023-01-05T09:05:07;11.40;99.90
33837;DHT22;20140;49.356;8.812;2023-01-05T09:07:33;11.40;99.90
33837;DHT22;20140;49.356;8.812;2023-01-05T09:09:58;11.40;99.90
33837;DHT22;20140;49.356;8.812;2023-01-05T09:12:24;11.40;99.90
33837;DHT22;20140;49.356;8.812;2023-01-05T09:14:50;11.40;99.90
33837;DHT22;20140;49.356;8.812;2023-01-05T09:17:15;11.40;99.90
33837;DHT22;20140;49.356;8.812;2023-01-05T09:19:41;11.40;99.90
33837;DHT22;20140;49.356;8.812;2023-01-05T09:22:06;11.40;99.90
33837;DHT22;20140;49.356;8.812;2023-01-05T09:24:32;11.30;99.90
33837;DHT22;20140;49.356;8.812;2023-01-05T09:26:57;11.20;99.90
33837;DHT22;20140;49.356;8.812;2023-01-05T09:29:23;11.30;99.90
33837;DHT22;20140;49.356;8.812;2023-01-05T09:31:48;11.30;99.90
33837;DHT22;20140;49.356;8.812;2023-01-05T09:34:14;11.40;99.90
33837;DHT22;20140;49.356;8.812;2023-01-05T09:36:40;11.40;99.90
33837;DHT22;20140;49.356;8.812;2023-01-05T09:39:06;11.40;99.90
33837;DHT22;20140;49.356;8.812;2023-01-05T09:41:54;11.40;99.90
33837;DHT22;20140;49.356;8.812;2023-01-05T09:44:28;11.50;99.90
33837;DHT22;20140;49.356;8.812;2023-01-05T09:47:27;11.50;99.90
33837;DHT22;20140;49.356;8.812;2023-01-05T09:49:43;11.50;99.90
33837;DHT22;20140;49.356;8.812;2023-01-05T09:52:10;11.50;99.90
33837;DHT22;20140;49.356;8.812;2023-01-05T09:54:38;11.50;99.90
33837;DHT22;20140;49.356;8.812;2023-01-05T09:57:06;11.50;99.90
33837;DHT22;20140;49.356;8.812;2023-01-05T09:59:37;11.60;99.90
33837;DHT22;20140;49.356;8.812;2023-01-05T10:04:46;11.60;99.90
33837;DHT22;20140;49.356;8.812;2023-01-05T10:09:44;11.70;99.90
33837;DHT22;20140;49.356;8.812;2023-01-05T10:12:36;11.60;99.90
33837;DHT22;20140;49.356;8.812;2023-01-05T10:15:25;11.70;99.90
33837;DHT22;20140;49.356;8.812;2023-01-05T10:17:51;11.70;99.90
33837;DHT22;20140;49.356;8.812;2023-01-05T10:20:27;11.70;99.90
33837;DHT22;20140;49.356;8.812;2023-01-05T10:23:22;11.80;99.90
33837;DHT22;20140;49.356;8.812;2023-01-05T10:26:07;11.80;99.90
33837;DHT22;20140;49.356;8.812;2023-01-05T10:31:23;11.80;99.90
33837;DHT22;20140;49.356;8.812;2023-01-05T10:33:57;11.90;99.90
33837;DHT22;20140;49.356;8.812;2023-01-05T10:36:37;11.90;99.90
33837;DHT22;20140;49.356;8.812;2023-01-05T10:39:28;11.90;99.90
33837;DHT22;20140;49.356;8.812;2023-01-05T10:42:21;12.00;99.90
33837;DHT22;20140;49.356;8.812;2023-01-05T10:44:57;12.00;99.90
33837;DHT22;20140;49.356;8.812;2023-01-05T10:47:25;12.00;99.90
33837;DHT22;20140;49.356;8.812;2023-01-05T10:49:51;12.00;99.90
33837;DHT22;20140;49.356;8.812;2023-01-05T10:52:19;12.00;99.90
33837;DHT22;20140;49.356;8.812;2023-01-05T10:54:49;11.90;99.90
33837;DHT22;20140;49.356;8.812;2023-01-05T11:00:03;12.00;99.90
33837;DHT22;20140;49.356;8.812;2023-01-05T11:02:31;12.00;99.90
33837;DHT22;20140;49.356;8.812;2023-01-05T11:05:32;12.00;99.90
33837;DHT22;20140;49.356;8.812;2023-01-05T11:08:02;12.00;99.90
33837;DHT22;20140;49.356;8.812;2023-01-05T11:10:40;12.00;99.90
33837;DHT22;20140;49.356;8.812;2023-01-05T11:15:42;12.10;99.90
33837;DHT22;20140;49.356;8.812;2023-01-05T11:18:50;12.10;99.90
33837;DHT22;20140;49.356;8.812;2023-01-05T11:21:20;12.10;99.90
33837;DHT22;20140;49.356;8.812;2023-01-05T11:23:57;12.10;99.90
33837;DHT22;20140;49.356;8.812;2023-01-05T11:26:34;12.00;99.90
33837;DHT22;20140;49.356;8.812;2023-01-05T11:31:31;12.00;99.90
33837;DHT22;20140;49.356;8.812;2023-01-05T11:33:59;11.90;99.90
33837;DHT22;20140;49.356;8.812;2023-01-05T11:36:26;12.00;99.90
33837;DHT22;20140;49.356;8.812;2023-01-05T11:38:56;12.10;99.90
33837;DHT22;20140;49.356;8.812;2023-01-05T11:41:22;12.10;99.90
33837;DHT22;20140;49.356;8.812;2023-01-05T11:43:49;12.00;99.90
33837;DHT22;20140;49.356;8.812;2023-01-05T11:46:16;12.00;99.90
33837;DHT22;20140;49.356;8.812;2023-01-05T11:48:53;11.90;99.90
33837;DHT22;20140;49.356;8.812;2023-01-05T11:51:39;12.00;99.90
33837;DHT22;20140;49.356;8.812;2023-01-05T11:54:24;12.00;99.90
33837;DHT22;20140;49.356;8.812;2023-01-05T11:57:13;12.00;99.90
33837;DHT22;20140;49.356;8.812;2023-01-05T11:59:39;12.00;99.90
33837;DHT22;20140;49.356;8.812;2023-01-05T12:05:45;12.00;99.90
33837;DHT22;20140;49.356;8.812;2023-01-05T12:08:04;12.00;99.90
33837;DHT22;20140;49.356;8.812;2023-01-05T12:11:34;12.00;99.90
33837;DHT22;20140;49.356;8.812;2023-01-05T12:13:34;12.10;99.90
33837;DHT22;20140;49.356;8.812;2023-01-05T12:16:44;12.00;99.90
33837;DHT22;20140;49.356;8.812;2023-01-05T12:30:20;12.20;99.90
33837;DHT22;20140;49.356;8.812;2023-01-05T12:35:49;12.20;99.90
33837;DHT22;20140;49.356;8.812;2023-01-05T12:41:08;12.20;99.90
33837;DHT22;20140;49.356;8.812;2023-01-05T12:44:00;12.10;99.90
33837;DHT22;20140;49.356;8.812;2023-01-05T12:49:15;12.10;99.90
33837;DHT22;20140;49.356;8.812;2023-01-05T12:51:45;12.20;99.90
33837;DHT22;20140;49.356;8.812;2023-01-05T12:54:30;12.10;99.90
33837;DHT22;20140;49.356;8.812;2023-01-05T12:57:11;12.20;99.90
33837;DHT22;20140;49.356;8.812;2023-01-05T12:59:47;12.30;99.90
33837;DHT22;20140;49.356;8.812;2023-01-05T13:05:16;12.20;99.90
33837;DHT22;20140;49.356;8.812;2023-01-05T13:10:35;12.20;99.90
33837;DHT22;20140;49.356;8.812;2023-01-05T13:13:08;12.20;99.90
33837;DHT22;20140;49.356;8.812;2023-01-05T13:15:44;12.10;99.90
33837;DHT22;20140;49.356;8.812;2023-01-05T13:18:15;12.10;99.90
33837;DHT22;20140;49.356;8.812;2023-01-05T13:20:49;12.10;99.90
33837;DHT22;20140;49.356;8.812;2023-01-05T13:23:33;12.00;99.90
33837;DHT22;20140;49.356;8.812;2023-01-05T13:26:14;12.00;99.90
33837;DHT22;20140;49.356;8.812;2023-01-05T13:28:40;12.00;99.90
33837;DHT22;20140;49.356;8.812;2023-01-05T13:34:26;12.00;99.90
33837;DHT22;20140;49.356;8.812;2023-01-05T13:37:11;12.00;99.90
33837;DHT22;20140;49.356;8.812;2023-01-05T13:42:49;11.80;99.90
33837;DHT22;20140;49.356;8.812;2023-01-05T13:48:30;11.80;99.90
33837;DHT22;20140;49.356;8.812;2023-01-05T13:51:04;11.80;99.90
33837;DHT22;20140;49.356;8.812;2023-01-05T13:53:36;11.80;99.90
33837;DHT22;20140;49.356;8.812;2023-01-05T13:56:27;11.80;99.90
33837;DHT22;20140;49.356;8.812;2023-01-05T13:59:02;11.90;99.90
33837;DHT22;20140;49.356;8.812;2023-01-05T14:01:44;11.80;99.90
33837;DHT22;20140;49.356;8.812;2023-01-05T14:04:21;11.80;99.90
33837;DHT22;20140;49.356;8.812;2023-01-05T14:06:52;11.80;99.90
33837;DHT22;20140;49.356;8.812;2023-01-05T14:20:47;11.80;99.90
33837;DHT22;20140;49.356;8.812;2023-01-05T14:36:35;11.80;99.90
33837;DHT22;20140;49.356;8.812;2023-01-05T14:39:05;11.80;99.90
33837;DHT22;20140;49.356;8.812;2023-01-05T14:41:32;11.80;99.90
33837;DHT22;20140;49.356;8.812;2023-01-05T14:44:05;11.80;99.90
33837;DHT22;20140;49.356;8.812;2023-01-05T14:46:51;11.80;99.90
33837;DHT22;20140;49.356;8.812;2023-01-05T14:49:29;11.80;99.90
33837;DHT22;20140;49.356;8.812;2023-01-05T14:51:58;11.70;99.90
33837;DHT22;20140;49.356;8.812;2023-01-05T14:57:52;11.80;99.90
33837;DHT22;20140;49.356;8.812;2023-01-05T15:28:42;11.90;99.90
33837;DHT22;20140;49.356;8.812;2023-01-05T15:31:34;11.80;99.90
33837;DHT22;20140;49.356;8.812;2023-01-05T15:34:22;11.80;99.90
33837;DHT22;20140;49.356;8.812;2023-01-05T15:39:35;11.70;99.90
33837;DHT22;20140;49.356;8.812;2023-01-05T15:42:06;11.70;99.90
33837;DHT22;20140;49.356;8.812;2023-01-05T15:44:38;11.60;99.90
33837;DHT22;20140;49.356;8.812;2023-01-05T15:47:08;11.60;99.90
33837;DHT22;20140;49.356;8.812;2023-01-05T15:49:34;11.60;99.90
33837;DHT22;20140;49.356;8.812;2023-01-05T15:52:00;11.60;99.90
33837;DHT22;20140;49.356;8.812;2023-01-05T15:54:29;11.60;99.90
33837;DHT22;20140;49.356;8.812;2023-01-05T15:56:55;11.50;99.90
33837;DHT22;20140;49.356;8.812;2023-01-05T16:01:55;11.50;99.90
33837;DHT22;20140;49.356;8.812;2023-01-05T16:04:21;11.50;99.90
33837;DHT22;20140;49.356;8.812;2023-01-05T16:06:53;11.50;99.90
33837;DHT22;20140;49.356;8.812;2023-01-05T16:09:33;11.50;99.90
33837;DHT22;20140;49.356;8.812;2023-01-05T16:12:11;11.50;99.90
33837;DHT22;20140;49.356;8.812;2023-01-05T16:14:52;11.50;99.90
33837;DHT22;20140;49.356;8.812;2023-01-05T16:17:23;11.50;99.90
33837;DHT22;20140;49.356;8.812;2023-01-05T16:19:54;11.50;99.90
33837;DHT22;20140;49.356;8.812;2023-01-05T16:22:27;11.50;99.90
33837;DHT22;20140;49.356;8.812;2023-01-05T16:27:39;11.40;99.90
33837;DHT22;20140;49.356;8.812;2023-01-05T16:35:33;11.40;99.90
33837;DHT22;20140;49.356;8.812;2023-01-05T16:40:34;11.30;99.90
33837;DHT22;20140;49.356;8.812;2023-01-05T16:43:00;11.40;99.90
33837;DHT22;20140;49.356;8.812;2023-01-05T16:45:30;11.30;99.90
33837;DHT22;20140;49.356;8.812;2023-01-05T16:47:55;11.30;99.90
33837;DHT22;20140;49.356;8.812;2023-01-05T16:52:55;11.30;99.90
33837;DHT22;20140;49.356;8.812;2023-01-05T16:55:35;11.30;99.90
33837;DHT22;20140;49.356;8.812;2023-01-05T16:58:31;11.30;99.90
33837;DHT22;20140;49.356;8.812;2023-01-05T17:00:47;11.30;99.90
33837;DHT22;20140;49.356;8.812;2023-01-05T17:05:50;11.30;99.90
33837;DHT22;20140;49.356;8.812;2023-01-05T17:08:24;11.30;99.90
33837;DHT22;20140;49.356;8.812;2023-01-05T17:10:51;11.30;99.90
33837;DHT22;20140;49.356;8.812;2023-01-05T17:13:21;11.30;99.90
33837;DHT22;20140;49.356;8.812;2023-01-05T17:15:49;11.30;99.90
33837;DHT22;20140;49.356;8.812;2023-01-05T17:18:24;11.30;99.90
33837;DHT22;20140;49.356;8.812;2023-01-05T17:20:50;11.30;99.90
33837;DHT22;20140;49.356;8.812;2023-01-05T17:23:21;11.20;99.90
33837;DHT22;20140;49.356;8.812;2023-01-05T17:25:49;11.20;99.90
33837;DHT22;20140;49.356;8.812;2023-01-05T17:28:15;11.10;99.90
33837;DHT22;20140;49.356;8.812;2023-01-05T17:30:42;11.00;99.90
33837;DHT22;20140;49.356;8.812;2023-01-05T17:33:08;11.00;99.90
33837;DHT22;20140;49.356;8.812;2023-01-05T17:35:34;11.00;99.90
33837;DHT22;20140;49.356;8.812;2023-01-05T17:38:00;10.90;99.90
33837;DHT22;20140;49.356;8.812;2023-01-05T17:40:26;10.80;99.90
33837;DHT22;20140;49.356;8.812;2023-01-05T17:42:53;10.80;99.90
33837;DHT22;20140;49.356;8.812;2023-01-05T17:45:21;10.80;99.90
33837;DHT22;20140;49.356;8.812;2023-01-05T17:47:48;10.90;99.90
33837;DHT22;20140;49.356;8.812;2023-01-05T17:50:19;10.90;99.90
33837;DHT22;20140;49.356;8.812;2023-01-05T17:52:46;10.90;99.90
33837;DHT22;20140;49.356;8.812;2023-01-05T17:55:11;10.90;99.90
33837;DHT22;20140;49.356;8.812;2023-01-05T17:57:38;10.80;99.90
33837;DHT22;20140;49.356;8.812;2023-01-05T18:00:05;10.80;99.90
33837;DHT22;20140;49.356;8.812;2023-01-05T18:02:31;10.80;99.90
33837;DHT22;20140;49.356;8.812;2023-01-05T18:04:57;10.90;99.90
33837;DHT22;20140;49.356;8.812;2023-01-05T18:07:23;10.80;99.90
33837;DHT22;20140;49.356;8.812;2023-01-05T18:09:48;10.80;99.90
33837;DHT22;20140;49.356;8.812;2023-01-05T18:12:14;10.80;99.90
33837;DHT22;20140;49.356;8.812;2023-01-05T18:14:40;10.90;99.90